Webcam op het Zuiden Meer informatie Webcam op het Zuiden


Webcam op het Westen Meer informatie Webcam op het Westen


Onweer radar Meer informatie blitzortung!


Regen radar  rain snow radar


Lokaal brand risico:
CBI


Regionaal brand risico: Meer informatie


Lokaal brand risico:
Gebaseerd op actuele waarde
CBI


Bezoek ook deze websites:

Template documentation
and downloads

And another site



Het weer levert geen direct gevaar op.    Er zijn geen waarschuwingen afgegeven.

METAR rapporten vliegvelden

   
ETWM - Meppen, Germany
Afstand tot: O 29 km
Gewijzigd: 22-01-2021 07:20
Grotendeels bewolkt  
Grotendeels bewolkt  
   Wind: ZW 14.8 km/h
Wind: ZW 14.8 km/h
Temperatuur: 4°C
Voelt als: 1°C
Dauwpunt: 2°C
Vochtigheid: 87%
Barometer: 987 hPa
Bewolking: Grotendeels bewolkt
Zicht: meer dan 10 km
Bewolking: Grotendeels bewolkt 900 ft
ETWM 220620Z 23008KT 9999 BKN009 04/02 Q0987 GRN
EHGG - Groningen/Eelde, Netherlands
Afstand tot: NNW 47 km
Gewijzigd: 22-01-2021 07:25
Licht bewolkt  
Licht bewolkt  
   Wind: ZW 25.9 km/h
Wind: ZW 25.9 km/h
Temperatuur: 3°C
Voelt als: -2°C
Dauwpunt: 2°C
Vochtigheid: 93%
Barometer: 985 hPa
Bewolking: Licht bewolkt
Zicht: meer dan 10 km
Bewolking: Licht bewolkt 2300 ft
EHGG 220625Z AUTO 22014KT 9999 FEW023 03/02 Q0985 NOSIG
EDDG - Muenster/Osnabru, Germany
Afstand tot: ZO 87 km
Gewijzigd: 22-01-2021 07:20
Grotendeels bewolkt  
Grotendeels bewolkt  
   Wind: ZW 18.5 km/h
Wind: ZW 18.5 km/h
Temperatuur: 4°C
Voelt als: 0°C
Dauwpunt: 2°C
Vochtigheid: 87%
Barometer: 989 hPa
Bewolking: Grotendeels bewolkt
Zicht: meer dan 10 km
Bewolking: Grotendeels bewolkt 1300 ft
EDDG 220620Z 22010KT 180V250 9999 BKN013 04/02 Q0989 NOSIG
EHLW - Leeuwarden Rnlaf, Netherlands
Afstand tot: NW 93 km
Gewijzigd: 22-01-2021 07:25
Helder  
Helder  
   Wind: WZW 25.9 km/h
Wind: WZW 25.9 km/h
Temperatuur: 4°C
Voelt als: -1°C
Dauwpunt: 1°C
Vochtigheid: 81%
Barometer: 985 hPa
Bewolking: Helder
Zicht: meer dan 10 km
Bewolking: Helder
EHLW 220625Z AUTO 25014KT 210V280 9999 NCD 04/01 Q0985 BLU
ETNT - Wittmundhaven(Ga, Germany
Afstand tot: NNO 100 km
Gewijzigd: 22-01-2021 07:20
Gedeeltelijk bewolkt  
Gedeeltelijk bewolkt  
   Wind: ZW 22.2 km/h
Wind: ZW 22.2 km/h
Temperatuur: 4°C
Voelt als: -1°C
Dauwpunt: 2°C
Vochtigheid: 87%
Barometer: 984 hPa
Bewolking: Gedeeltelijk bewolkt
Zicht: meer dan 10 km
Bewolking: Licht bewolkt 1000 ft,
Gedeeltelijk bewolkt 3000 ft
ETNT 220620Z 22012KT 9999 FEW010 SCT030 04/02 Q0984 BLU+
ETND - Diepholz (ger-Af, Germany
Afstand tot: O 104 km
Gewijzigd: 22-01-2021 07:20
Grotendeels bewolkt  
Grotendeels bewolkt  
   Wind: ZW 25.9 km/h
Wind: ZW 25.9 km/h
Temperatuur: 4°C
Voelt als: -1°C
Dauwpunt: 2°C
Vochtigheid: 87%
Barometer: 988 hPa
Bewolking: Grotendeels bewolkt
Zicht: meer dan 10 km
Bewolking: Gedeeltelijk bewolkt 1300 ft,
Grotendeels bewolkt 7000 ft,
Grotendeels bewolkt 14000 ft
ETND 220620Z 23014KT 9999 SCT013 BKN070 BKN140 04/02 Q0988 BLU
ETNT - Wittmundhaven(Ga, Germany
Afstand tot: NNO 102 km
Gewijzigd: 22-01-2021 07:20
Gedeeltelijk bewolkt  
Gedeeltelijk bewolkt  
   Wind: ZW 22.2 km/h
Wind: ZW 22.2 km/h
Temperatuur: 4°C
Voelt als: -1°C
Dauwpunt: 2°C
Vochtigheid: 87%
Barometer: 984 hPa
Bewolking: Gedeeltelijk bewolkt
Zicht: meer dan 10 km
Bewolking: Licht bewolkt 1000 ft,
Gedeeltelijk bewolkt 3000 ft
ETNT 220620Z 22012KT 9999 FEW010 SCT030 04/02 Q0984 BLU+
EHDL - Deelen Rnlafb, Netherlands
Afstand tot: ZW 103 km
Gewijzigd: 22-01-2021 07:25
Nevel, Bewolking  
Nevel, Bewolking  
   Wind: ZW 20.4 km/h
Wind: ZW 20.4 km/h
Temperatuur: 3°C
Voelt als: -2°C
Dauwpunt: 3°C
Vochtigheid: 100%
Barometer: 988 hPa
Bewolking: Bewolking
Zicht: 7 km
Bewolking: Grotendeels bewolkt 500 ft,
Bewolking 600 ft
EHDL 220625Z AUTO 22011KT 160V270 7000 BR BKN005 OVC006 03/03 Q0988 YLO
EHMA - Awg-1 Sea, Netherlands
Afstand tot: NW 105 km
Gewijzigd: 22-01-2021 07:25
Licht bewolkt  
Licht bewolkt  
   Wind: WZW 38.9 km/h
Wind: WZW 38.9 km/h
Temperatuur: 6°C
Voelt als: 1°C
Dauwpunt: 2°C
Vochtigheid: 76%
Barometer: 984 hPa
Bewolking: Licht bewolkt
Zicht: meer dan 10 km
Bewolking: Licht bewolkt 2300 ft
EHMA 220625Z AUTO 25021KT 9999 FEW023 06/02 Q0984
EDDW - Bremen, Germany
Afstand tot: ONO 135 km
Gewijzigd: 22-01-2021 07:20
Grotendeels bewolkt  
Grotendeels bewolkt  
   Wind: ZW 25.9 km/h
Wind: ZW 25.9 km/h
Temperatuur: 3°C
Voelt als: -2°C
Dauwpunt: 2°C
Vochtigheid: 93%
Barometer: 986 hPa
Bewolking: Grotendeels bewolkt
Zicht: meer dan 10 km
Bewolking: Grotendeels bewolkt 1000 ft
EDDW 220620Z 22014KT 9999 BKN010 03/02 Q0986 TEMPO 22015G25KT BKN009
EHVL - Vlieland Island, Netherlands
Afstand tot: WNW 138 km
Gewijzigd: 22-01-2021 07:25
Licht bewolkt  
Licht bewolkt  
   Wind: Westen 48.2 km/h
Wind: Westen 48.2 km/h
Temperatuur: 6°C
Voelt als: 0°C
Dauwpunt: 1°C
Vochtigheid: 71%
Barometer: 985 hPa
Bewolking: Licht bewolkt
Zicht: meer dan 10 km
Bewolking: Licht bewolkt 2400 ft
EHVL 220625Z AUTO 26026KT 9999 FEW024 06/01 Q0985 BLU
EDLV - Niederrhein, Germany
Afstand tot: ZZW 139 km
Gewijzigd: 22-01-2021 07:20
Grotendeels bewolkt  
Grotendeels bewolkt  
   Wind: ZW 18.5 km/h
Wind: ZW 18.5 km/h
Temperatuur: 4°C
Voelt als: 0°C
Dauwpunt: 3°C
Vochtigheid: 93%
Barometer: 990 hPa
Bewolking: Grotendeels bewolkt
Zicht: meer dan 10 km
Bewolking: Grotendeels bewolkt 1000 ft
EDLV 220620Z 22010KT 9999 BKN010 04/03 Q0990
EHKD - De Kooy (navy), Netherlands
Afstand tot: W 144 km
Gewijzigd: 22-01-2021 07:25
Gedeeltelijk bewolkt  
Gedeeltelijk bewolkt  
   Wind: Westen 31.5 km/h
Wind: Westen 31.5 km/h
Temperatuur: 5°C
Voelt als: 0°C
Dauwpunt: 2°C
Vochtigheid: 81%
Barometer: 986 hPa
Bewolking: Gedeeltelijk bewolkt
Zicht: meer dan 10 km
Bewolking: Gedeeltelijk bewolkt 2000 ft,
Gedeeltelijk bewolkt 2400 ft
EHKD 220625Z AUTO 26017KT 230V290 9999 SCT020 SCT024 05/02 Q0986 WHT NOSIG
EDLW - Dortmund/Wickede, Germany
Afstand tot: ZZO 150 km
Gewijzigd: 22-01-2021 07:20
Licht bewolkt  
Licht bewolkt  
   Wind: ZZW 22.2 km/h
Wind: ZZW 22.2 km/h
Temperatuur: 4°C
Voelt als: -1°C
Dauwpunt: 2°C
Vochtigheid: 87%
Barometer: 989 hPa
Bewolking: Licht bewolkt
Zicht: meer dan 10 km
Bewolking: Licht bewolkt 1100 ft
EDLW 220620Z 21012KT 9999 FEW011 04/02 Q0989
EHVK - Volkel Rnlafb, Netherlands
Afstand tot: ZZW 149 km
Gewijzigd: 22-01-2021 07:25
Bewolking  
Bewolking  
   Wind: ZW 18.5 km/h
Wind: ZW 18.5 km/h
Temperatuur: 3°C
Voelt als: -1°C
Dauwpunt: 2°C
Vochtigheid: 93%
Barometer: 989 hPa
Bewolking: Bewolking
Zicht: meer dan 10 km
Bewolking: Gedeeltelijk bewolkt 600 ft,
Grotendeels bewolkt 700 ft,
Bewolking 16000 ft
EHVK 220625Z AUTO 23010KT 9999 SCT006 BKN007 OVC160 03/02 Q0989 YLO
EDLW - Dortmund/Wickede, Germany
Afstand tot: ZZO 150 km
Gewijzigd: 22-01-2021 07:20
Licht bewolkt  
Licht bewolkt  
   Wind: ZZW 22.2 km/h
Wind: ZZW 22.2 km/h
Temperatuur: 4°C
Voelt als: -1°C
Dauwpunt: 2°C
Vochtigheid: 87%
Barometer: 989 hPa
Bewolking: Licht bewolkt
Zicht: meer dan 10 km
Bewolking: Licht bewolkt 1100 ft
EDLW 220620Z 21012KT 9999 FEW011 04/02 Q0989
EHMG - L9-Ff-1 Sea, Netherlands
Afstand tot: NW 155 km
Gewijzigd: 22-01-2021 07:25
Grotendeels bewolkt  
Grotendeels bewolkt  
   Wind: WZW 57.4 km/h
Wind: WZW 57.4 km/h
Temperatuur: 6°C
Voelt als: -1°C
Dauwpunt: 1°C
Vochtigheid: 71%
Barometer: 984 hPa
Bewolking: Grotendeels bewolkt
Zicht: meer dan 10 km
Bewolking: Licht bewolkt 2100 ft,
Gedeeltelijk bewolkt 2900 ft,
Grotendeels bewolkt 3300 ft
EHMG 220625Z AUTO 25031KT 9999 FEW021 SCT029 BKN033 06/01 Q0984
ETHB - Buckeburg(Ger-Ar, Germany
Afstand tot: OZO 161 km
Gewijzigd: 22-01-2021 07:20
Grotendeels bewolkt  
Grotendeels bewolkt  
   Wind: WZW 18.5 km/h
Wind: WZW 18.5 km/h
Temperatuur: 4°C
Voelt als: 0°C
Dauwpunt: 2°C
Vochtigheid: 87%
Barometer: 988 hPa
Bewolking: Grotendeels bewolkt
Zicht: meer dan 10 km
Bewolking: Grotendeels bewolkt 1200 ft,
Grotendeels bewolkt 9000 ft
ETHB 220620Z 25010KT 9999 BKN012 BKN090 04/02 Q0988 GRN BLU TEMPO GRN
ETMN - Nordholz (ger-Na, Germany
Afstand tot: NO 164 km
Gewijzigd: 22-01-2021 07:20
Grotendeels bewolkt  
Grotendeels bewolkt  
   Wind: ZW 22.2 km/h<br />Gust to 22.2 km/h
Wind: ZW 22.2 km/h
Gust to 22.2 km/h
Temperatuur: 3°C
Voelt als: -2°C
Dauwpunt: 2°C
Vochtigheid: 93%
Barometer: 984 hPa
Bewolking: Grotendeels bewolkt
Zicht: meer dan 10 km
Bewolking: Grotendeels bewolkt 11000 ft
ETMN 220620Z 23012G22KT 9999 BKN110 03/02 Q0984 BLU BLU
EDDL - Duesseldorf, Germany
Afstand tot: Z 165 km
Gewijzigd: 22-01-2021 07:20
Gedeeltelijk bewolkt  
Gedeeltelijk bewolkt  
   Wind: ZZW 16.7 km/h
Wind: ZZW 16.7 km/h
Temperatuur: 4°C
Voelt als: 0°C
Dauwpunt: 3°C
Vochtigheid: 93%
Barometer: 990 hPa
Bewolking: Gedeeltelijk bewolkt
Zicht: meer dan 10 km
Bewolking: Licht bewolkt 1200 ft,
Gedeeltelijk bewolkt 1800 ft
EDDL 220620Z 21009KT 9999 FEW012 SCT018 04/03 Q0990 NOSIG
EDLN - Monchengladbach, Germany
Afstand tot: Z 174 km
Gewijzigd: 22-01-2021 07:20
Bewolking  
Bewolking  
   Wind: ZZW 9.3 km/h
Wind: ZZW 9.3 km/h
Temperatuur: 4°C
Voelt als: 2°C
Dauwpunt: 3°C
Vochtigheid: 93%
Barometer: 990 hPa
Bewolking: Bewolking
Zicht: meer dan 10 km
Bewolking: Grotendeels bewolkt 1800 ft,
Grotendeels bewolkt 2100 ft,
Bewolking 11000 ft
EDLN 220620Z AUTO 21005KT 180V240 9999 // BKN018/// BKN021/// OVC110/// 04/03 Q0990

Script ontwikkeld door  Saratoga-weather.org Aangepast voor de template door  Weerstation Leuven

U vindt ons ook hier:

Het Weer Aktueel

European Weather Network

Weather Underground

Wetterpage 24

Apparatuur in gebruik:

Weerstation
Davis VP2

Weerprogramma
Meteohub

Hardware
RaspberryPI, Wireless Weather Envoy, MeteoStick, TP-Link MR3020

Leverancier
Weerhuisje.nl weerstations

Davis VP2

Meteohub

RaspberryPI, Wireless Weather Envoy, MeteoStick, TP-Link MR3020

Weerhuisje.nl weerstations